sensor_id;sensor_type;location;lat;lon;timestamp;P1;durP1;ratioP1;P2;durP2;ratioP2
55483;SDS011;41345;51.704;5.146;2022-11-20T00:04:39;22.45;;;12.50;;
55483;SDS011;41345;51.704;5.146;2022-11-20T00:09:39;24.70;;;12.90;;
55483;SDS011;41345;51.704;5.146;2022-11-20T00:14:39;23.35;;;13.02;;
55483;SDS011;41345;51.704;5.146;2022-11-20T00:19:41;25.42;;;13.80;;
55483;SDS011;41345;51.704;5.146;2022-11-20T00:24:41;23.77;;;12.60;;
55483;SDS011;41345;51.704;5.146;2022-11-20T00:29:41;24.98;;;13.30;;
55483;SDS011;41345;51.704;5.146;2022-11-20T00:34:42;24.90;;;13.25;;
55483;SDS011;41345;51.704;5.146;2022-11-20T00:39:42;23.23;;;13.00;;
55483;SDS011;41345;51.704;5.146;2022-11-20T00:44:42;22.88;;;11.68;;
55483;SDS011;41345;51.704;5.146;2022-11-20T00:49:42;21.85;;;11.27;;
55483;SDS011;41345;51.704;5.146;2022-11-20T00:54:43;24.35;;;12.05;;
55483;SDS011;41345;51.704;5.146;2022-11-20T00:59:43;22.60;;;11.73;;
55483;SDS011;41345;51.704;5.146;2022-11-20T01:04:43;22.13;;;11.75;;
55483;SDS011;41345;51.704;5.146;2022-11-20T01:09:44;24.98;;;12.57;;
55483;SDS011;41345;51.704;5.146;2022-11-20T01:14:44;22.52;;;11.68;;
55483;SDS011;41345;51.704;5.146;2022-11-20T01:19:44;24.08;;;11.77;;
55483;SDS011;41345;51.704;5.146;2022-11-20T01:24:45;23.60;;;11.65;;
55483;SDS011;41345;51.704;5.146;2022-11-20T01:29:45;24.50;;;12.30;;
55483;SDS011;41345;51.704;5.146;2022-11-20T01:34:45;23.77;;;13.00;;
55483;SDS011;41345;51.704;5.146;2022-11-20T01:39:45;24.48;;;11.98;;
55483;SDS011;41345;51.704;5.146;2022-11-20T01:44:53;23.33;;;11.98;;
55483;SDS011;41345;51.704;5.146;2022-11-20T01:55:02;25.25;;;13.18;;
55483;SDS011;41345;51.704;5.146;2022-11-20T02:00:07;22.42;;;11.98;;
55483;SDS011;41345;51.704;5.146;2022-11-20T02:05:28;22.20;;;12.27;;
55483;SDS011;41345;51.704;5.146;2022-11-20T02:10:31;25.67;;;13.52;;
55483;SDS011;41345;51.704;5.146;2022-11-20T02:15:32;25.73;;;13.52;;
55483;SDS011;41345;51.704;5.146;2022-11-20T02:20:33;23.63;;;11.43;;
55483;SDS011;41345;51.704;5.146;2022-11-20T02:25:33;26.67;;;13.77;;
55483;SDS011;41345;51.704;5.146;2022-11-20T02:30:35;27.52;;;14.05;;
55483;SDS011;41345;51.704;5.146;2022-11-20T02:40:35;25.45;;;13.65;;
55483;SDS011;41345;51.704;5.146;2022-11-20T02:45:35;28.40;;;13.38;;
55483;SDS011;41345;51.704;5.146;2022-11-20T02:50:36;22.95;;;12.40;;
55483;SDS011;41345;51.704;5.146;2022-11-20T02:55:37;22.13;;;11.77;;
55483;SDS011;41345;51.704;5.146;2022-11-20T03:00:37;22.10;;;11.82;;
55483;SDS011;41345;51.704;5.146;2022-11-20T03:05:37;29.08;;;11.98;;
55483;SDS011;41345;51.704;5.146;2022-11-20T03:10:38;25.67;;;12.30;;
55483;SDS011;41345;51.704;5.146;2022-11-20T03:15:38;27.23;;;12.50;;
55483;SDS011;41345;51.704;5.146;2022-11-20T03:20:38;26.23;;;13.35;;
55483;SDS011;41345;51.704;5.146;2022-11-20T03:25:39;24.98;;;13.15;;
55483;SDS011;41345;51.704;5.146;2022-11-20T03:30:39;23.08;;;12.48;;
55483;SDS011;41345;51.704;5.146;2022-11-20T03:35:39;28.30;;;14.23;;
55483;SDS011;41345;51.704;5.146;2022-11-20T03:40:39;27.17;;;14.55;;
55483;SDS011;41345;51.704;5.146;2022-11-20T03:45:40;26.13;;;14.27;;
55483;SDS011;41345;51.704;5.146;2022-11-20T03:50:40;28.00;;;13.98;;
55483;SDS011;41345;51.704;5.146;2022-11-20T03:55:40;25.90;;;13.60;;
55483;SDS011;41345;51.704;5.146;2022-11-20T04:00:40;31.30;;;14.60;;
55483;SDS011;41345;51.704;5.146;2022-11-20T04:05:41;26.95;;;14.13;;
55483;SDS011;41345;51.704;5.146;2022-11-20T04:10:41;29.92;;;14.48;;
55483;SDS011;41345;51.704;5.146;2022-11-20T04:15:41;29.42;;;13.65;;
55483;SDS011;41345;51.704;5.146;2022-11-20T04:20:42;29.25;;;14.48;;
55483;SDS011;41345;51.704;5.146;2022-11-20T04:25:42;25.85;;;14.00;;
55483;SDS011;41345;51.704;5.146;2022-11-20T04:30:42;26.85;;;14.80;;
55483;SDS011;41345;51.704;5.146;2022-11-20T04:35:43;29.02;;;14.50;;
55483;SDS011;41345;51.704;5.146;2022-11-20T04:40:44;24.52;;;14.18;;
55483;SDS011;41345;51.704;5.146;2022-11-20T04:45:49;32.80;;;15.13;;
55483;SDS011;41345;51.704;5.146;2022-11-20T04:50:50;26.98;;;13.48;;
55483;SDS011;41345;51.704;5.146;2022-11-20T04:55:50;29.55;;;14.60;;
55483;SDS011;41345;51.704;5.146;2022-11-20T05:00:51;28.55;;;14.60;;
55483;SDS011;41345;51.704;5.146;2022-11-20T05:05:51;24.10;;;12.40;;
55483;SDS011;41345;51.704;5.146;2022-11-20T05:10:51;26.85;;;13.45;;
55483;SDS011;41345;51.704;5.146;2022-11-20T05:15:52;24.80;;;13.32;;
55483;SDS011;41345;51.704;5.146;2022-11-20T05:20:56;25.77;;;12.80;;
55483;SDS011;41345;51.704;5.146;2022-11-20T05:25:56;25.27;;;12.60;;
55483;SDS011;41345;51.704;5.146;2022-11-20T05:31:04;25.50;;;13.32;;
55483;SDS011;41345;51.704;5.146;2022-11-20T05:36:04;28.15;;;13.30;;
55483;SDS011;41345;51.704;5.146;2022-11-20T05:41:05;27.17;;;13.45;;
55483;SDS011;41345;51.704;5.146;2022-11-20T05:46:07;29.30;;;14.00;;
55483;SDS011;41345;51.704;5.146;2022-11-20T05:51:08;24.45;;;13.10;;
55483;SDS011;41345;51.704;5.146;2022-11-20T05:56:10;29.10;;;13.90;;
55483;SDS011;41345;51.704;5.146;2022-11-20T06:01:18;28.83;;;13.15;;
55483;SDS011;41345;51.704;5.146;2022-11-20T06:06:19;24.63;;;12.70;;
55483;SDS011;41345;51.704;5.146;2022-11-20T06:11:20;28.52;;;14.68;;
55483;SDS011;41345;51.704;5.146;2022-11-20T06:16:20;23.75;;;12.98;;
55483;SDS011;41345;51.704;5.146;2022-11-20T06:21:22;28.25;;;14.05;;
55483;SDS011;41345;51.704;5.146;2022-11-20T06:26:24;26.60;;;13.70;;
55483;SDS011;41345;51.704;5.146;2022-11-20T06:31:25;28.42;;;14.02;;
55483;SDS011;41345;51.704;5.146;2022-11-20T06:36:25;27.20;;;13.85;;
55483;SDS011;41345;51.704;5.146;2022-11-20T06:41:26;28.98;;;13.90;;
55483;SDS011;41345;51.704;5.146;2022-11-20T06:46:27;32.03;;;14.93;;
55483;SDS011;41345;51.704;5.146;2022-11-20T06:51:28;31.70;;;14.98;;
55483;SDS011;41345;51.704;5.146;2022-11-20T06:56:28;28.23;;;14.55;;
55483;SDS011;41345;51.704;5.146;2022-11-20T07:01:28;27.45;;;14.57;;
55483;SDS011;41345;51.704;5.146;2022-11-20T07:06:29;28.00;;;14.50;;
55483;SDS011;41345;51.704;5.146;2022-11-20T07:11:29;31.27;;;15.95;;
55483;SDS011;41345;51.704;5.146;2022-11-20T07:16:29;31.08;;;16.25;;
55483;SDS011;41345;51.704;5.146;2022-11-20T07:21:30;28.05;;;14.95;;
55483;SDS011;41345;51.704;5.146;2022-11-20T07:26:30;26.17;;;14.77;;
55483;SDS011;41345;51.704;5.146;2022-11-20T07:31:30;32.13;;;15.93;;
55483;SDS011;41345;51.704;5.146;2022-11-20T07:36:30;31.90;;;16.25;;
55483;SDS011;41345;51.704;5.146;2022-11-20T07:41:31;31.55;;;16.75;;
55483;SDS011;41345;51.704;5.146;2022-11-20T07:46:31;32.85;;;15.32;;
55483;SDS011;41345;51.704;5.146;2022-11-20T07:51:31;31.58;;;16.58;;
55483;SDS011;41345;51.704;5.146;2022-11-20T07:56:31;28.63;;;15.52;;
55483;SDS011;41345;51.704;5.146;2022-11-20T08:01:32;31.80;;;16.23;;
55483;SDS011;41345;51.704;5.146;2022-11-20T08:06:32;30.45;;;16.20;;
55483;SDS011;41345;51.704;5.146;2022-11-20T08:11:32;32.60;;;15.63;;
55483;SDS011;41345;51.704;5.146;2022-11-20T08:16:51;32.45;;;16.52;;
55483;SDS011;41345;51.704;5.146;2022-11-20T08:21:51;32.38;;;16.92;;
55483;SDS011;41345;51.704;5.146;2022-11-20T08:26:52;29.83;;;15.95;;
55483;SDS011;41345;51.704;5.146;2022-11-20T08:31:52;28.63;;;16.13;;
55483;SDS011;41345;51.704;5.146;2022-11-20T08:36:52;29.55;;;15.73;;
55483;SDS011;41345;51.704;5.146;2022-11-20T08:41:53;33.65;;;17.60;;
55483;SDS011;41345;51.704;5.146;2022-11-20T08:46:53;28.55;;;16.15;;
55483;SDS011;41345;51.704;5.146;2022-11-20T08:51:53;29.20;;;15.93;;
55483;SDS011;41345;51.704;5.146;2022-11-20T08:56:55;34.28;;;17.42;;
55483;SDS011;41345;51.704;5.146;2022-11-20T09:01:55;30.20;;;16.30;;
55483;SDS011;41345;51.704;5.146;2022-11-20T09:06:55;32.60;;;17.52;;
55483;SDS011;41345;51.704;5.146;2022-11-20T09:11:56;31.95;;;16.95;;
55483;SDS011;41345;51.704;5.146;2022-11-20T09:16:56;33.40;;;17.90;;
55483;SDS011;41345;51.704;5.146;2022-11-20T09:21:56;32.90;;;16.95;;
55483;SDS011;41345;51.704;5.146;2022-11-20T09:26:57;32.63;;;18.27;;
55483;SDS011;41345;51.704;5.146;2022-11-20T09:31:57;35.45;;;19.52;;
55483;SDS011;41345;51.704;5.146;2022-11-20T09:36:57;35.85;;;19.55;;
55483;SDS011;41345;51.704;5.146;2022-11-20T09:47:08;35.00;;;18.77;;
55483;SDS011;41345;51.704;5.146;2022-11-20T09:52:16;39.50;;;20.50;;
55483;SDS011;41345;51.704;5.146;2022-11-20T09:57:21;40.97;;;19.75;;
55483;SDS011;41345;51.704;5.146;2022-11-20T10:02:39;39.40;;;20.38;;
55483;SDS011;41345;51.704;5.146;2022-11-20T10:18:09;36.95;;;19.20;;
55483;SDS011;41345;51.704;5.146;2022-11-20T10:33:46;44.47;;;23.08;;
55483;SDS011;41345;51.704;5.146;2022-11-20T10:43:59;43.83;;;22.77;;
55483;SDS011;41345;51.704;5.146;2022-11-20T10:49:00;53.38;;;23.70;;
55483;SDS011;41345;51.704;5.146;2022-11-20T11:04:07;45.90;;;21.83;;
55483;SDS011;41345;51.704;5.146;2022-11-20T11:09:19;50.00;;;22.75;;
55483;SDS011;41345;51.704;5.146;2022-11-20T11:14:21;44.70;;;21.92;;
55483;SDS011;41345;51.704;5.146;2022-11-20T11:19:24;42.75;;;20.80;;
55483;SDS011;41345;51.704;5.146;2022-11-20T11:24:26;43.72;;;21.52;;
55483;SDS011;41345;51.704;5.146;2022-11-20T11:29:26;50.63;;;21.20;;
55483;SDS011;41345;51.704;5.146;2022-11-20T11:34:29;43.72;;;21.67;;
55483;SDS011;41345;51.704;5.146;2022-11-20T11:39:30;46.03;;;22.92;;
55483;SDS011;41345;51.704;5.146;2022-11-20T11:44:31;44.88;;;22.10;;
55483;SDS011;41345;51.704;5.146;2022-11-20T11:55:10;49.17;;;23.08;;
55483;SDS011;41345;51.704;5.146;2022-11-20T12:00:15;50.03;;;23.63;;
55483;SDS011;41345;51.704;5.146;2022-11-20T12:10:21;52.78;;;23.05;;
55483;SDS011;41345;51.704;5.146;2022-11-20T12:15:32;50.10;;;23.42;;
55483;SDS011;41345;51.704;5.146;2022-11-20T12:20:34;56.03;;;24.65;;
55483;SDS011;41345;51.704;5.146;2022-11-20T12:25:38;52.40;;;23.27;;
55483;SDS011;41345;51.704;5.146;2022-11-20T13:01:57;60.90;;;26.02;;
55483;SDS011;41345;51.704;5.146;2022-11-20T13:06:58;58.75;;;26.60;;
55483;SDS011;41345;51.704;5.146;2022-11-20T13:12:06;59.85;;;27.25;;
55483;SDS011;41345;51.704;5.146;2022-11-20T13:17:12;63.08;;;25.50;;
55483;SDS011;41345;51.704;5.146;2022-11-20T13:22:23;60.78;;;26.70;;
55483;SDS011;41345;51.704;5.146;2022-11-20T13:27:24;61.65;;;27.70;;
55483;SDS011;41345;51.704;5.146;2022-11-20T13:32:24;65.40;;;27.45;;
55483;SDS011;41345;51.704;5.146;2022-11-20T13:37:32;62.40;;;27.20;;
55483;SDS011;41345;51.704;5.146;2022-11-20T13:42:35;67.20;;;27.92;;
55483;SDS011;41345;51.704;5.146;2022-11-20T13:47:36;62.10;;;25.65;;
55483;SDS011;41345;51.704;5.146;2022-11-20T13:52:56;63.17;;;26.90;;
55483;SDS011;41345;51.704;5.146;2022-11-20T14:08:06;73.05;;;28.10;;
55483;SDS011;41345;51.704;5.146;2022-11-20T14:13:18;70.05;;;27.33;;
55483;SDS011;41345;51.704;5.146;2022-11-20T14:18:20;69.65;;;27.52;;
55483;SDS011;41345;51.704;5.146;2022-11-20T14:23:28;73.15;;;26.88;;
55483;SDS011;41345;51.704;5.146;2022-11-20T14:28:29;71.15;;;27.15;;
55483;SDS011;41345;51.704;5.146;2022-11-20T14:33:30;69.60;;;27.88;;
55483;SDS011;41345;51.704;5.146;2022-11-20T14:38:32;79.60;;;29.00;;
55483;SDS011;41345;51.704;5.146;2022-11-20T14:43:32;77.88;;;28.98;;
55483;SDS011;41345;51.704;5.146;2022-11-20T14:48:40;91.03;;;29.27;;
55483;SDS011;41345;51.704;5.146;2022-11-20T14:53:41;86.25;;;29.67;;
55483;SDS011;41345;51.704;5.146;2022-11-20T14:58:42;92.07;;;28.55;;
55483;SDS011;41345;51.704;5.146;2022-11-20T15:03:42;77.47;;;27.65;;
55483;SDS011;41345;51.704;5.146;2022-11-20T15:08:50;92.70;;;30.95;;
55483;SDS011;41345;51.704;5.146;2022-11-20T15:13:50;96.20;;;29.63;;
55483;SDS011;41345;51.704;5.146;2022-11-20T15:18:51;86.53;;;29.53;;
55483;SDS011;41345;51.704;5.146;2022-11-20T15:23:51;86.45;;;31.10;;
55483;SDS011;41345;51.704;5.146;2022-11-20T15:28:51;88.20;;;31.15;;
55483;SDS011;41345;51.704;5.146;2022-11-20T15:33:52;81.38;;;30.05;;
55483;SDS011;41345;51.704;5.146;2022-11-20T15:38:52;95.72;;;30.30;;
55483;SDS011;41345;51.704;5.146;2022-11-20T15:43:52;88.85;;;29.20;;
55483;SDS011;41345;51.704;5.146;2022-11-20T15:48:56;98.07;;;32.50;;
55483;SDS011;41345;51.704;5.146;2022-11-20T15:53:58;84.53;;;30.42;;
55483;SDS011;41345;51.704;5.146;2022-11-20T15:58:59;86.47;;;29.58;;
55483;SDS011;41345;51.704;5.146;2022-11-20T16:03:59;89.97;;;30.45;;
55483;SDS011;41345;51.704;5.146;2022-11-20T16:09:00;82.30;;;28.92;;
55483;SDS011;41345;51.704;5.146;2022-11-20T16:14:00;88.97;;;31.27;;
55483;SDS011;41345;51.704;5.146;2022-11-20T16:19:19;75.07;;;27.55;;
55483;SDS011;41345;51.704;5.146;2022-11-20T16:24:19;72.68;;;25.73;;
55483;SDS011;41345;51.704;5.146;2022-11-20T16:29:20;79.72;;;26.33;;
55483;SDS011;41345;51.704;5.146;2022-11-20T16:34:20;60.33;;;22.63;;
55483;SDS011;41345;51.704;5.146;2022-11-20T16:39:20;64.78;;;24.65;;
55483;SDS011;41345;51.704;5.146;2022-11-20T16:44:21;67.30;;;24.20;;
55483;SDS011;41345;51.704;5.146;2022-11-20T16:49:22;77.22;;;23.10;;
55483;SDS011;41345;51.704;5.146;2022-11-20T16:54:22;66.80;;;23.20;;
55483;SDS011;41345;51.704;5.146;2022-11-20T16:59:22;67.43;;;22.90;;
55483;SDS011;41345;51.704;5.146;2022-11-20T17:04:23;63.30;;;21.70;;
55483;SDS011;41345;51.704;5.146;2022-11-20T17:09:23;62.20;;;21.52;;
55483;SDS011;41345;51.704;5.146;2022-11-20T17:14:24;53.25;;;26.25;;
55483;SDS011;41345;51.704;5.146;2022-11-20T17:19:24;57.10;;;20.83;;
55483;SDS011;41345;51.704;5.146;2022-11-20T17:24:24;55.10;;;19.90;;
55483;SDS011;41345;51.704;5.146;2022-11-20T17:29:25;46.28;;;19.20;;
55483;SDS011;41345;51.704;5.146;2022-11-20T17:34:25;45.93;;;18.77;;
55483;SDS011;41345;51.704;5.146;2022-11-20T17:39:25;44.22;;;19.25;;
55483;SDS011;41345;51.704;5.146;2022-11-20T17:44:26;48.03;;;19.52;;
55483;SDS011;41345;51.704;5.146;2022-11-20T17:49:26;54.83;;;20.17;;
55483;SDS011;41345;51.704;5.146;2022-11-20T17:54:27;54.95;;;20.92;;
55483;SDS011;41345;51.704;5.146;2022-11-20T17:59:27;43.05;;;19.60;;
55483;SDS011;41345;51.704;5.146;2022-11-20T18:04:27;43.80;;;19.38;;
55483;SDS011;41345;51.704;5.146;2022-11-20T18:09:28;49.13;;;22.02;;
55483;SDS011;41345;51.704;5.146;2022-11-20T18:14:28;52.60;;;21.40;;
55483;SDS011;41345;51.704;5.146;2022-11-20T18:19:32;53.22;;;21.55;;
55483;SDS011;41345;51.704;5.146;2022-11-20T18:24:33;56.70;;;23.23;;
55483;SDS011;41345;51.704;5.146;2022-11-20T18:29:38;63.97;;;24.98;;
55483;SDS011;41345;51.704;5.146;2022-11-20T18:34:38;64.65;;;24.67;;
55483;SDS011;41345;51.704;5.146;2022-11-20T18:39:39;73.65;;;25.95;;
55483;SDS011;41345;51.704;5.146;2022-11-20T18:44:39;83.93;;;26.00;;
55483;SDS011;41345;51.704;5.146;2022-11-20T18:49:54;76.35;;;27.67;;
55483;SDS011;41345;51.704;5.146;2022-11-20T18:54:56;89.75;;;27.25;;
55483;SDS011;41345;51.704;5.146;2022-11-20T18:59:56;93.93;;;28.55;;
55483;SDS011;41345;51.704;5.146;2022-11-20T19:05:00;95.53;;;27.30;;
55483;SDS011;41345;51.704;5.146;2022-11-20T19:10:00;92.03;;;28.60;;
55483;SDS011;41345;51.704;5.146;2022-11-20T19:15:00;92.10;;;28.90;;
55483;SDS011;41345;51.704;5.146;2022-11-20T19:20:01;89.22;;;27.70;;
55483;SDS011;41345;51.704;5.146;2022-11-20T19:25:01;89.25;;;28.13;;
55483;SDS011;41345;51.704;5.146;2022-11-20T19:30:02;100.70;;;29.40;;
55483;SDS011;41345;51.704;5.146;2022-11-20T19:35:02;92.85;;;28.35;;
55483;SDS011;41345;51.704;5.146;2022-11-20T19:40:02;90.53;;;29.42;;
55483;SDS011;41345;51.704;5.146;2022-11-20T19:45:03;100.78;;;29.67;;
55483;SDS011;41345;51.704;5.146;2022-11-20T19:50:04;104.47;;;29.77;;
55483;SDS011;41345;51.704;5.146;2022-11-20T19:55:04;106.32;;;31.48;;
55483;SDS011;41345;51.704;5.146;2022-11-20T20:00:05;97.27;;;27.50;;
55483;SDS011;41345;51.704;5.146;2022-11-20T20:05:05;98.15;;;29.33;;
55483;SDS011;41345;51.704;5.146;2022-11-20T20:10:06;108.28;;;29.52;;
55483;SDS011;41345;51.704;5.146;2022-11-20T20:15:06;117.63;;;29.85;;
55483;SDS011;41345;51.704;5.146;2022-11-20T20:20:07;116.05;;;29.83;;
55483;SDS011;41345;51.704;5.146;2022-11-20T20:25:07;115.15;;;31.13;;
55483;SDS011;41345;51.704;5.146;2022-11-20T20:30:07;92.07;;;27.77;;
55483;SDS011;41345;51.704;5.146;2022-11-20T20:35:10;110.82;;;28.42;;
55483;SDS011;41345;51.704;5.146;2022-11-20T20:40:11;81.10;;;28.10;;
55483;SDS011;41345;51.704;5.146;2022-11-20T20:45:11;124.47;;;27.98;;
55483;SDS011;41345;51.704;5.146;2022-11-20T20:50:11;220.63;;;32.15;;
55483;SDS011;41345;51.704;5.146;2022-11-20T20:55:12;107.88;;;28.83;;
55483;SDS011;41345;51.704;5.146;2022-11-20T21:00:12;83.75;;;26.63;;
55483;SDS011;41345;51.704;5.146;2022-11-20T21:05:13;119.25;;;29.00;;
55483;SDS011;41345;51.704;5.146;2022-11-20T21:10:13;75.13;;;27.20;;
55483;SDS011;41345;51.704;5.146;2022-11-20T21:15:13;97.68;;;29.90;;
55483;SDS011;41345;51.704;5.146;2022-11-20T21:20:14;81.60;;;28.35;;
55483;SDS011;41345;51.704;5.146;2022-11-20T21:25:37;60.97;;;24.83;;
55483;SDS011;41345;51.704;5.146;2022-11-20T21:30:41;73.28;;;25.48;;
55483;SDS011;41345;51.704;5.146;2022-11-20T21:35:41;64.63;;;23.73;;
55483;SDS011;41345;51.704;5.146;2022-11-20T21:40:42;54.70;;;22.38;;
55483;SDS011;41345;51.704;5.146;2022-11-20T21:45:42;63.20;;;23.48;;
55483;SDS011;41345;51.704;5.146;2022-11-20T21:50:42;102.57;;;27.33;;
55483;SDS011;41345;51.704;5.146;2022-11-20T21:55:43;76.38;;;25.88;;
55483;SDS011;41345;51.704;5.146;2022-11-20T22:00:43;117.05;;;28.77;;
55483;SDS011;41345;51.704;5.146;2022-11-20T22:05:51;68.90;;;25.27;;
55483;SDS011;41345;51.704;5.146;2022-11-20T22:11:05;70.47;;;24.13;;
55483;SDS011;41345;51.704;5.146;2022-11-20T22:16:06;62.97;;;23.85;;
55483;SDS011;41345;51.704;5.146;2022-11-20T22:21:06;49.40;;;19.47;;
55483;SDS011;41345;51.704;5.146;2022-11-20T22:26:10;48.10;;;20.55;;
55483;SDS011;41345;51.704;5.146;2022-11-20T22:31:11;58.25;;;22.02;;
55483;SDS011;41345;51.704;5.146;2022-11-20T22:36:18;63.10;;;23.73;;
55483;SDS011;41345;51.704;5.146;2022-11-20T22:41:22;61.03;;;23.25;;
55483;SDS011;41345;51.704;5.146;2022-11-20T22:46:28;46.47;;;19.73;;
55483;SDS011;41345;51.704;5.146;2022-11-20T22:51:30;52.35;;;19.58;;
55483;SDS011;41345;51.704;5.146;2022-11-20T22:56:31;37.67;;;17.77;;
55483;SDS011;41345;51.704;5.146;2022-11-20T23:01:32;42.55;;;18.60;;
55483;SDS011;41345;51.704;5.146;2022-11-20T23:06:33;43.17;;;18.30;;
55483;SDS011;41345;51.704;5.146;2022-11-20T23:11:33;42.17;;;18.58;;
55483;SDS011;41345;51.704;5.146;2022-11-20T23:16:34;41.33;;;16.23;;
55483;SDS011;41345;51.704;5.146;2022-11-20T23:21:35;22.00;;;9.57;;
55483;SDS011;41345;51.704;5.146;2022-11-20T23:26:37;21.17;;;9.18;;
55483;SDS011;41345;51.704;5.146;2022-11-20T23:31:38;18.40;;;7.93;;
55483;SDS011;41345;51.704;5.146;2022-11-20T23:36:38;22.52;;;9.20;;
55483;SDS011;41345;51.704;5.146;2022-11-20T23:41:38;22.67;;;9.30;;
55483;SDS011;41345;51.704;5.146;2022-11-20T23:46:38;22.02;;;9.18;;
55483;SDS011;41345;51.704;5.146;2022-11-20T23:51:39;11.77;;;5.10;;
55483;SDS011;41345;51.704;5.146;2022-11-20T23:56:39;16.67;;;7.28;;
